Time;durP1;ratioP1;P1;durP2;ratioP2;P2;SDS_P1;SDS_P2;PMS_P1;PMS_P2;Temp;Humidity;BMP_temperature;BMP_pressure;BME280_temperature;BME280_humidity;BME280_pressure;Samples;Min_cycle;Max_cycle;Signal;HPM_P1;HPM_P2
2022/08/16 00:00:33;;;;;;;15.20;13.18;;;;;;;19.17;100.00;100267.75;4952653;29;20195;-50
2022/08/16 00:02:59;;;;;;;15.50;12.73;;;;;;;19.17;100.00;100263.19;4952877;28;20206;-48
2022/08/16 00:05:26;;;;;;;14.35;12.82;;;;;;;19.13;100.00;100261.72;4951877;28;20255;-48
2022/08/16 00:07:52;;;;;;;15.60;13.40;;;;;;;18.98;100.00;100261.16;4952917;29;20274;-48
2022/08/16 00:10:19;;;;;;;14.68;13.27;;;;;;;18.92;100.00;100254.38;4952384;29;20657;-47
2022/08/16 00:12:45;;;;;;;13.95;12.55;;;;;;;19.02;100.00;100262.63;4952654;28;20194;-49
2022/08/16 00:15:16;;;;;;;17.30;12.80;;;;;;;19.06;100.00;100255.06;4952692;29;20646;-49
2022/08/16 00:17:43;;;;;;;14.23;12.80;;;;;;;18.87;100.00;100256.59;4952710;29;20171;-48
2022/08/16 00:20:12;;;;;;;13.60;12.30;;;;;;;18.74;100.00;100258.56;4952367;29;20174;-49
2022/08/16 00:22:40;;;;;;;14.90;13.07;;;;;;;18.64;100.00;100258.44;4952523;28;20330;-47
2022/08/16 00:25:10;;;;;;;14.55;13.05;;;;;;;18.64;100.00;100261.16;4952376;29;20167;-46
2022/08/16 00:27:37;;;;;;;14.20;12.90;;;;;;;18.78;100.00;100254.63;4951995;29;20219;-48
2022/08/16 00:30:06;;;;;;;15.23;13.50;;;;;;;18.84;100.00;100261.41;4950978;29;20194;-47
2022/08/16 00:32:32;;;;;;;13.80;12.57;;;;;;;18.85;100.00;100255.88;4952593;28;20186;-50
2022/08/16 00:34:58;;;;;;;14.40;13.00;;;;;;;18.73;100.00;100252.25;4952152;29;20326;-49
2022/08/16 00:37:24;;;;;;;13.32;11.98;;;;;;;18.89;100.00;100251.91;4950909;29;20175;-48
2022/08/16 00:39:52;;;;;;;15.38;13.23;;;;;;;18.70;100.00;100257.94;4951881;29;20193;-49
2022/08/16 00:45:20;;;;;;;13.13;11.70;;;;;;;18.87;100.00;100256.59;5063177;27;20592;-48
2022/08/16 00:47:46;;;;;;;15.90;12.52;;;;;;;18.91;100.00;100257.19;5057105;28;20215;-48
2022/08/16 00:50:13;;;;;;;13.13;11.77;;;;;;;18.96;100.00;100256.81;5049791;28;20222;-47
2022/08/16 00:52:39;;;;;;;12.82;11.52;;;;;;;18.91;100.00;100251.78;5064919;28;20311;-47
2022/08/16 00:55:06;;;;;;;17.65;13.27;;;;;;;18.73;100.00;100254.13;5046352;28;20259;-47
2022/08/16 00:57:31;;;;;;;12.88;11.68;;;;;;;18.88;100.00;100252.03;5047668;28;20202;-48
2022/08/16 00:59:57;;;;;;;13.27;11.88;;;;;;;18.69;100.00;100258.94;5046211;28;20183;-49
2022/08/16 01:02:22;;;;;;;14.70;12.00;;;;;;;18.59;100.00;100257.97;5048035;28;20174;-47
2022/08/16 01:04:48;;;;;;;13.73;12.27;;;;;;;18.47;100.00;100254.38;5047744;28;20293;-47
2022/08/16 01:07:14;;;;;;;14.02;12.82;;;;;;;18.51;100.00;100264.00;5046392;28;20230;-50
2022/08/16 01:09:40;;;;;;;14.07;12.63;;;;;;;18.56;100.00;100260.91;5046888;28;20187;-47
2022/08/16 01:12:09;;;;;;;13.85;12.55;;;;;;;18.62;100.00;100265.84;5048006;28;20262;-48
2022/08/16 01:14:40;;;;;;;12.40;11.32;;;;;;;18.77;100.00;100263.72;5046920;28;20199;-48
2022/08/16 01:17:07;;;;;;;14.93;13.48;;;;;;;18.62;100.00;100260.41;5047283;28;20238;-49
2022/08/16 01:19:37;;;;;;;12.65;11.35;;;;;;;18.67;100.00;100269.06;5047253;28;20176;-47
2022/08/16 01:22:18;;;;;;;14.40;12.90;;;;;;;18.19;100.00;100269.31;5046302;28;20172;-49
2022/08/16 01:24:55;;;;;;;13.77;12.48;;;;;;;18.17;100.00;100284.81;5046075;28;20257;-49
2022/08/16 01:27:30;;;;;;;15.48;13.98;;;;;;;18.35;100.00;100287.06;5035076;28;20179;-46
2022/08/16 01:30:11;;;;;;;15.00;13.60;;;;;;;18.47;100.00;100286.06;5025854;28;20673;-48
2022/08/16 01:32:41;;;;;;;17.45;15.77;;;;;;;18.48;100.00;100293.25;5025865;28;20188;-48
2022/08/16 01:35:23;;;;;;;17.25;15.80;;;;;;;18.52;100.00;100281.16;5025893;28;20522;-46
2022/08/16 01:37:52;;;;;;;18.25;16.10;;;;;;;18.55;100.00;100280.03;5027124;28;20240;-48
2022/08/16 01:40:23;;;;;;;16.17;14.65;;;;;;;18.63;100.00;100283.88;5025775;28;20647;-49
2022/08/16 01:42:50;;;;;;;16.77;15.20;;;;;;;18.57;100.00;100281.63;5025549;28;20229;-49
2022/08/16 01:45:17;;;;;;;20.13;16.55;;;;;;;18.70;100.00;100289.66;5025746;28;20184;-48
2022/08/16 01:47:47;;;;;;;20.40;18.58;;;;;;;18.84;100.00;100294.84;5025812;28;20226;-49
2022/08/16 01:50:12;;;;;;;20.45;18.45;;;;;;;18.84;100.00;100289.41;5024551;28;20172;-49
2022/08/16 01:52:39;;;;;;;22.05;20.10;;;;;;;18.98;100.00;100292.84;5025588;28;20279;-49
2022/08/16 01:55:11;;;;;;;21.80;19.85;;;;;;;19.06;100.00;100301.22;5018046;28;20191;-48
2022/08/16 01:57:43;;;;;;;22.48;20.17;;;;;;;19.14;100.00;100287.88;5012057;28;20168;-47
2022/08/16 02:00:12;;;;;;;23.10;20.13;;;;;;;19.19;100.00;100293.78;5029386;28;20222;-48
2022/08/16 02:02:42;;;;;;;22.60;20.58;;;;;;;19.23;100.00;100291.69;5031319;28;20196;-50
2022/08/16 02:05:09;;;;;;;23.42;20.73;;;;;;;19.21;100.00;100293.69;5031601;28;20208;-50
2022/08/16 02:07:37;;;;;;;20.63;18.73;;;;;;;19.26;100.00;100294.16;5031224;28;20172;-49
2022/08/16 02:10:07;;;;;;;22.05;19.95;;;;;;;19.26;100.00;100297.75;5031166;28;20198;-49
2022/08/16 02:12:43;;;;;;;20.58;18.55;;;;;;;19.34;100.00;100299.81;5032447;28;20187;-50
2022/08/16 02:15:12;;;;;;;20.17;18.27;;;;;;;19.35;100.00;100307.84;5031295;28;20176;-50
2022/08/16 02:17:37;;;;;;;20.98;19.08;;;;;;;19.34;100.00;100308.81;5031351;28;20218;-48
2022/08/16 02:20:06;;;;;;;20.88;18.70;;;;;;;19.35;100.00;100299.69;5032075;28;20171;-50
2022/08/16 02:22:34;;;;;;;20.67;18.65;;;;;;;19.38;100.00;100304.00;5031560;28;20180;-47
2022/08/16 02:25:00;;;;;;;20.10;18.20;;;;;;;19.36;100.00;100300.53;5030992;28;20172;-48
2022/08/16 02:27:25;;;;;;;19.90;18.10;;;;;;;19.41;100.00;100301.00;5019904;28;20177;-49
2022/08/16 02:29:51;;;;;;;19.48;17.55;;;;;;;19.48;100.00;100298.66;5011941;28;20175;-47
2022/08/16 02:32:17;;;;;;;18.73;16.98;;;;;;;19.54;100.00;100300.84;5011327;28;20176;-49
2022/08/16 02:34:43;;;;;;;19.00;17.10;;;;;;;19.54;100.00;100298.13;5012363;28;20267;-47
2022/08/16 02:37:10;;;;;;;19.45;17.45;;;;;;;19.47;100.00;100311.38;5011215;28;20546;-48
2022/08/16 02:39:37;;;;;;;20.27;18.38;;;;;;;19.48;100.00;100298.66;5010465;28;20643;-49
2022/08/16 02:42:02;;;;;;;21.67;19.05;;;;;;;19.48;100.00;100287.78;5010971;28;20179;-48
2022/08/16 02:44:28;;;;;;;20.13;18.08;;;;;;;19.48;100.00;100283.22;5010378;28;20613;-48
2022/08/16 02:46:54;;;;;;;20.15;18.33;;;;;;;19.47;100.00;100286.06;5011033;28;20189;-50
2022/08/16 02:49:22;;;;;;;21.58;19.67;;;;;;;19.46;100.00;100284.31;5010667;28;20231;-48
2022/08/16 02:51:47;;;;;;;22.42;20.23;;;;;;;19.52;100.00;100281.09;5012176;28;20247;-48
2022/08/16 02:54:13;;;;;;;21.00;18.90;;;;;;;19.53;100.00;100288.28;5012001;28;20591;-50
2022/08/16 02:56:41;;;;;;;21.73;19.48;;;;;;;19.48;100.00;100285.06;5010870;28;20239;-50
2022/08/16 02:59:07;;;;;;;23.95;21.45;;;;;;;19.47;100.00;100289.63;5010113;28;20843;-50
2022/08/16 03:01:33;;;;;;;23.17;20.90;;;;;;;19.54;100.00;100287.25;5010714;28;20536;-49
2022/08/16 03:04:05;;;;;;;22.70;20.38;;;;;;;19.53;100.00;100293.72;5010436;28;20243;-48
2022/08/16 03:06:31;;;;;;;26.23;21.50;;;;;;;19.54;100.00;100287.25;5010922;28;20553;-48
2022/08/16 03:09:02;;;;;;;21.88;19.75;;;;;;;19.60;100.00;100294.03;5009868;28;20589;-48
2022/08/16 03:11:31;;;;;;;23.00;20.63;;;;;;;19.58;100.00;100293.31;5010607;28;20208;-48
2022/08/16 03:13:58;;;;;;;24.55;21.98;;;;;;;19.56;100.00;100304.31;5010389;28;20204;-49
2022/08/16 03:16:24;;;;;;;23.80;21.25;;;;;;;19.62;100.00;100308.38;5011465;28;20173;-48
2022/08/16 03:18:50;;;;;;;23.45;21.17;;;;;;;19.54;100.00;100312.56;5010181;28;20188;-47
2022/08/16 03:21:16;;;;;;;23.52;20.70;;;;;;;19.50;100.00;100319.28;5010170;28;20184;-49
2022/08/16 03:23:43;;;;;;;21.30;19.30;;;;;;;19.55;100.00;100317.03;5010196;28;20585;-50
2022/08/16 03:26:12;;;;;;;22.83;20.52;;;;;;;19.55;100.00;100311.59;5011325;28;20187;-49
2022/08/16 03:28:39;;;;;;;23.73;19.63;;;;;;;19.65;100.00;100311.66;5010128;28;20173;-50
2022/08/16 03:31:05;;;;;;;19.60;17.60;;;;;;;19.68;100.00;100321.44;5011479;28;20173;-46
2022/08/16 03:33:32;;;;;;;22.30;20.15;;;;;;;19.64;100.00;100319.97;5009543;28;20287;-47
2022/08/16 03:35:58;;;;;;;22.98;20.67;;;;;;;19.64;100.00;100320.84;5011495;28;20165;-48
2022/08/16 03:38:35;;;;;;;24.70;20.45;;;;;;;19.64;100.00;100333.56;5009790;28;20250;-48
2022/08/16 03:41:10;;;;;;;24.25;21.77;;;;;;;19.69;100.00;100323.16;5010031;28;20657;-47
2022/08/16 03:43:36;;;;;;;23.75;21.40;;;;;;;19.68;100.00;100333.19;5009647;28;20212;-47
2022/08/16 03:46:01;;;;;;;24.73;22.10;;;;;;;19.62;100.00;100336.41;5010237;28;20220;-47
2022/08/16 03:48:34;;;;;;;23.95;21.45;;;;;;;19.66;100.00;100337.03;5009854;28;20222;-48
2022/08/16 03:51:05;;;;;;;26.25;23.60;;;;;;;19.60;100.00;100332.94;4993465;28;20169;-48
2022/08/16 03:53:35;;;;;;;27.35;24.83;;;;;;;19.59;100.00;100333.97;5009285;28;20197;-48
2022/08/16 03:56:02;;;;;;;27.98;24.48;;;;;;;19.51;100.00;100333.72;5009375;28;20392;-48
2022/08/16 03:58:28;;;;;;;30.33;27.23;;;;;;;19.53;100.00;100326.31;5015277;28;20191;-48
2022/08/16 04:00:54;;;;;;;32.92;28.23;;;;;;;19.52;100.00;100316.41;5028046;28;20176;-45
2022/08/16 04:03:21;;;;;;;33.60;28.98;;;;;;;19.50;100.00;100326.56;5028805;28;20218;-47
2022/08/16 04:05:49;;;;;;;33.33;29.80;;;;;;;19.51;100.00;100325.56;5029136;28;20215;-47
2022/08/16 04:08:20;;;;;;;33.05;29.67;;;;;;;19.50;100.00;100337.41;5028648;28;20168;-49
2022/08/16 04:10:48;;;;;;;36.28;29.40;;;;;;;19.52;100.00;100349.03;5028724;28;20190;-47
2022/08/16 04:13:14;;;;;;;35.17;30.10;;;;;;;19.50;100.00;100349.19;5028615;28;20198;-47
2022/08/16 04:15:41;;;;;;;33.85;29.75;;;;;;;19.52;100.00;100354.47;5029143;28;20180;-46
2022/08/16 04:18:13;;;;;;;35.95;32.17;;;;;;;19.45;100.00;100356.81;5028481;28;20178;-47
2022/08/16 04:20:39;;;;;;;35.35;31.48;;;;;;;19.45;100.00;100351.41;5028223;28;20175;-49
2022/08/16 04:23:07;;;;;;;31.67;28.23;;;;;;;19.48;100.00;100355.69;5030148;28;20246;-47
2022/08/16 04:25:34;;;;;;;33.75;30.40;;;;;;;19.43;100.00;100355.22;5028576;28;20176;-47
2022/08/16 04:28:00;;;;;;;34.67;31.13;;;;;;;19.39;100.00;100360.03;5012745;28;20231;-47
2022/08/16 04:30:26;;;;;;;31.02;27.75;;;;;;;19.45;100.00;100364.97;5008394;28;20176;-49
2022/08/16 04:32:53;;;;;;;30.08;26.95;;;;;;;19.51;100.00;100363.63;5009052;28;20192;-47
2022/08/16 04:35:22;;;;;;;33.47;29.98;;;;;;;19.51;100.00;100367.19;5009915;28;20172;-48
2022/08/16 04:37:49;;;;;;;30.77;27.67;;;;;;;19.52;100.00;100370.75;5008923;28;20263;-47
2022/08/16 04:40:22;;;;;;;29.95;27.10;;;;;;;19.40;100.00;100371.81;5008212;28;20176;-46
2022/08/16 04:42:50;;;;;;;33.17;29.67;;;;;;;19.30;100.00;100374.41;5008241;28;20204;-48
2022/08/16 04:45:16;;;;;;;30.15;27.10;;;;;;;19.31;100.00;100368.00;5008772;28;20175;-47
2022/08/16 04:47:43;;;;;;;29.27;26.15;;;;;;;19.31;100.00;100363.41;5008584;28;20173;-46
2022/08/16 04:50:21;;;;;;;31.27;28.02;;;;;;;19.29;100.00;100368.09;5008348;28;20600;-46
2022/08/16 04:52:57;;;;;;;29.27;26.35;;;;;;;19.24;100.00;100367.63;5008226;28;20192;-48
2022/08/16 04:55:27;;;;;;;27.20;24.38;;;;;;;19.21;100.00;100367.88;5008907;28;20161;-47
2022/08/16 04:57:54;;;;;;;26.83;24.02;;;;;;;19.16;100.00;100361.97;5008813;28;20165;-47
2022/08/16 05:00:25;;;;;;;23.67;21.48;;;;;;;19.18;100.00;100361.84;5009590;28;20169;-48
2022/08/16 05:02:52;;;;;;;25.95;23.35;;;;;;;19.05;100.00;100365.53;5008657;28;20227;-49
2022/08/16 05:05:18;;;;;;;22.83;20.75;;;;;;;19.09;100.00;100367.03;5009493;28;20180;-48
2022/08/16 05:07:45;;;;;;;26.65;23.90;;;;;;;19.04;100.00;100361.09;5010018;28;20177;-46
2022/08/16 05:10:12;;;;;;;28.27;25.48;;;;;;;18.99;100.00;100366.03;5007845;28;20184;-49
2022/08/16 05:12:37;;;;;;;31.00;27.80;;;;;;;18.96;100.00;100369.00;5009755;28;20636;-48
2022/08/16 05:15:04;;;;;;;32.97;28.20;;;;;;;19.00;100.00;100372.31;5009990;28;20189;-48
2022/08/16 05:17:34;;;;;;;36.13;31.17;;;;;;;18.99;100.00;100373.31;5008406;28;20268;-47
2022/08/16 05:20:06;;;;;;;35.17;31.10;;;;;;;18.99;100.00;100373.31;5007705;28;20259;-48
2022/08/16 05:22:38;;;;;;;35.28;31.42;;;;;;;19.03;100.00;100378.38;5008440;28;20173;-48
2022/08/16 05:25:06;;;;;;;31.00;28.00;;;;;;;19.10;100.00;100376.03;4992359;28;20227;-47
2022/08/16 05:27:32;;;;;;;32.28;28.88;;;;;;;19.10;100.00;100381.47;5008318;28;20177;-47
2022/08/16 05:29:58;;;;;;;34.55;30.85;;;;;;;18.95;100.00;100383.56;5009267;28;20227;-47
2022/08/16 05:32:24;;;;;;;28.17;25.42;;;;;;;19.04;100.00;100377.38;5012523;28;20207;-48
2022/08/16 05:34:49;;;;;;;31.48;28.27;;;;;;;19.08;100.00;100383.44;5012195;28;20202;-48
2022/08/16 05:37:15;;;;;;;34.25;30.55;;;;;;;19.10;100.00;100386.88;5014104;28;20167;-51
2022/08/16 05:39:41;;;;;;;31.05;27.77;;;;;;;19.13;100.00;100383.91;5011891;28;20223;-47
2022/08/16 05:42:07;;;;;;;33.13;29.63;;;;;;;19.18;100.00;100387.13;5012227;28;20709;-49
2022/08/16 05:44:33;;;;;;;38.15;33.70;;;;;;;19.11;100.00;100386.78;5011868;28;20208;-48
2022/08/16 05:47:00;;;;;;;32.97;29.30;;;;;;;19.20;100.00;100381.56;5012324;28;20180;-48
2022/08/16 05:49:29;;;;;;;42.38;37.78;;;;;;;19.07;100.00;100384.44;5011776;28;20177;-47
2022/08/16 05:51:58;;;;;;;35.35;31.67;;;;;;;19.16;100.00;100388.25;5012121;28;20177;-48
2022/08/16 05:54:25;;;;;;;35.72;32.00;;;;;;;19.17;100.00;100379.97;5011745;28;20223;-47
2022/08/16 05:56:51;;;;;;;37.05;33.10;;;;;;;19.17;100.00;100385.41;5011443;28;20592;-47
2022/08/16 05:59:17;;;;;;;33.05;29.65;;;;;;;19.24;100.00;100381.22;5012533;28;20200;-48
2022/08/16 06:01:43;;;;;;;42.75;36.58;;;;;;;19.25;100.00;100388.34;5011369;28;20216;-47
2022/08/16 06:04:11;;;;;;;40.00;35.88;;;;;;;19.28;100.00;100392.66;5012895;28;20586;-48
2022/08/16 06:06:42;;;;;;;41.60;35.60;;;;;;;19.34;100.00;100401.19;5011890;28;20187;-47
2022/08/16 06:09:09;;;;;;;47.63;39.47;;;;;;;19.32;100.00;100407.72;5011429;28;20264;-47
2022/08/16 06:11:35;;;;;;;42.88;37.83;;;;;;;19.35;100.00;100407.50;5011843;28;20168;-47
2022/08/16 06:14:02;;;;;;;45.03;40.10;;;;;;;19.32;100.00;100416.75;5011360;28;20246;-48
2022/08/16 06:16:40;;;;;;;42.67;38.15;;;;;;;19.31;100.00;100411.44;5011412;28;20182;-48
2022/08/16 06:19:06;;;;;;;47.40;42.42;;;;;;;19.23;100.00;100414.78;5010576;28;20284;-47
2022/08/16 06:21:35;;;;;;;42.83;38.22;;;;;;;19.33;100.00;100413.03;5011386;28;20176;-48
2022/08/16 06:24:02;;;;;;;48.20;41.70;;;;;;;19.30;100.00;100409.72;5014307;28;20207;-48
2022/08/16 06:26:31;;;;;;;45.97;40.08;;;;;;;19.38;100.00;100411.81;5028873;28;20623;-48
2022/08/16 06:28:56;;;;;;;49.22;41.20;;;;;;;19.41;100.00;100416.97;5060311;28;20211;-47
2022/08/16 06:31:30;;;;;;;51.88;42.67;;;;;;;19.45;100.00;100421.19;5028975;28;20532;-47
2022/08/16 06:33:57;;;;;;;49.25;43.90;;;;;;;19.44;100.00;100414.88;5027941;28;20196;-48
2022/08/16 06:36:25;;;;;;;49.97;43.28;;;;;;;19.46;100.00;100418.34;5061127;28;20207;-47
2022/08/16 06:39:13;;;;;;;52.92;45.85;;;;;;;19.49;100.00;100425.38;5060779;28;20172;-49
2022/08/16 06:41:59;;;;;;;52.97;45.30;;;;;;;19.50;100.00;100433.41;5028452;28;20195;-50
2022/08/16 06:44:57;;;;;;;50.72;45.38;;;;;;;19.47;100.00;100435.50;5024351;28;20285;-50
2022/08/16 06:47:38;;;;;;;52.20;44.85;;;;;;;19.52;100.00;100433.25;5029962;28;20183;-45
2022/08/16 06:50:05;;;;;;;53.50;46.20;;;;;;;19.52;100.00;100436.84;5046884;28;20199;-47
2022/08/16 06:52:45;;;;;;;49.85;43.17;;;;;;;19.67;100.00;100433.84;5063766;28;20507;-44
2022/08/16 06:55:14;;;;;;;51.17;41.63;;;;;;;19.67;100.00;100432.00;5063688;28;20184;-47
2022/08/16 06:57:46;;;;;;;47.08;41.88;;;;;;;19.78;100.00;100427.56;5030668;28;20684;-43
2022/08/16 07:00:13;;;;;;;44.70;39.67;;;;;;;19.79;100.00;100437.44;5029825;28;20183;-44
2022/08/16 07:02:48;;;;;;;47.33;42.40;;;;;;;19.80;100.00;100431.88;5030471;28;20705;-47
2022/08/16 07:05:16;;;;;;;45.40;40.60;;;;;;;19.89;100.00;100435.69;5063609;28;20171;-51
2022/08/16 07:07:51;;;;;;;45.22;40.65;;;;;;;20.06;100.00;100437.84;5048362;28;20172;-47
2022/08/16 07:10:18;;;;;;;42.70;38.33;;;;;;;20.23;100.00;100441.88;5030259;28;20241;-47
2022/08/16 07:12:44;;;;;;;45.22;40.17;;;;;;;20.22;100.00;100439.28;5030471;28;20219;-50
2022/08/16 07:15:10;;;;;;;40.50;36.22;;;;;;;20.30;100.00;100448.50;5030266;28;20202;-47
2022/08/16 07:17:36;;;;;;;38.17;34.30;;;;;;;20.52;100.00;100439.34;5063445;28;20612;-50
2022/08/16 07:20:07;;;;;;;38.10;34.13;;;;;;;20.51;100.00;100434.94;5031792;28;20175;-46
2022/08/16 07:22:43;;;;;;;38.13;34.05;;;;;;;20.60;100.00;100437.84;5030010;28;20194;-45
2022/08/16 07:25:18;;;;;;;35.92;32.05;;;;;;;20.67;100.00;100439.06;5030288;28;20646;-49
2022/08/16 07:27:44;;;;;;;34.30;30.63;;;;;;;20.72;100.00;100437.66;5031434;28;20183;-49
2022/08/16 07:30:15;;;;;;;34.30;30.85;;;;;;;20.57;100.00;100439.88;5030605;28;20167;-49
2022/08/16 07:32:40;;;;;;;33.53;30.02;;;;;;;20.76;100.00;100432.81;5029771;28;20191;-47
2022/08/16 07:35:06;;;;;;;33.55;30.08;;;;;;;20.96;100.00;100437.38;5029616;28;20233;-48
2022/08/16 07:37:33;;;;;;;34.25;29.45;;;;;;;20.86;100.00;100436.47;5029299;28;20843;-50
2022/08/16 07:40:12;;;;;;;34.65;30.75;;;;;;;20.87;100.00;100434.59;5062539;28;20552;-48
2022/08/16 07:42:41;;;;;;;32.10;28.60;;;;;;;20.93;100.00;100429.47;5029515;28;20286;-47
2022/08/16 07:45:08;;;;;;;33.92;30.27;;;;;;;20.99;100.00;100437.13;5029388;28;20335;-48
2022/08/16 07:47:34;;;;;;;34.05;30.33;;;;;;;21.01;100.00;100436.09;5029713;28;20662;-49
2022/08/16 07:50:00;;;;;;;33.92;29.10;;;;;;;21.17;100.00;100436.47;5030408;28;20163;-49
2022/08/16 07:52:28;;;;;;;34.25;30.58;;;;;;;21.10;100.00;100449.78;5062061;28;20298;-49
2022/08/16 07:54:54;;;;;;;29.15;26.15;;;;;;;21.27;100.00;100450.97;5030887;28;20278;-49
2022/08/16 07:57:22;;;;;;;31.65;28.65;;;;;;;21.22;100.00;100453.25;5030590;28;20182;-47
2022/08/16 07:59:47;;;;;;;30.23;27.25;;;;;;;21.46;100.00;100455.69;5029354;28;20278;-47
2022/08/16 08:02:16;;;;;;;32.22;28.67;;;;;;;21.37;100.00;100453.75;5029425;28;20229;-49
2022/08/16 08:04:43;;;;;;;31.85;27.95;;;;;;;21.33;100.00;100469.50;5062304;28;20525;-50
2022/08/16 08:07:08;;;;;;;31.02;27.95;;;;;;;21.28;100.00;100470.94;5029615;28;20180;-49
2022/08/16 08:09:34;;;;;;;31.55;27.70;;;;;;;21.36;100.00;100472.00;5028500;28;20177;-48
2022/08/16 08:11:59;;;;;;;30.48;27.23;;;;;;;21.49;100.00;100484.53;5062809;28;20159;-50
2022/08/16 08:14:25;;;;;;;29.70;26.60;;;;;;;21.45;100.00;100480.34;5062083;28;20198;-49
2022/08/16 08:16:52;;;;;;;29.50;26.25;;;;;;;21.52;100.00;100485.13;5029080;28;20180;-48
2022/08/16 08:19:25;;;;;;;28.60;25.73;;;;;;;21.46;100.00;100480.22;5028672;28;20458;-48
2022/08/16 08:21:53;;;;;;;29.98;25.67;;;;;;;21.39;100.00;100482.59;5029074;28;20645;-49
2022/08/16 08:24:21;;;;;;;28.75;25.52;;;;;;;21.48;100.00;100489.13;5045411;28;20203;-47
2022/08/16 08:26:47;;;;;;;26.35;23.52;;;;;;;21.77;100.00;100485.63;5062091;28;20194;-47
2022/08/16 08:29:13;;;;;;;25.42;21.92;;;;;;;22.68;98.36;100493.66;5028322;28;20175;-48
2022/08/16 08:31:41;;;;;;;24.77;21.95;;;;;;;22.27;95.84;100491.06;5030307;28;20160;-49
2022/08/16 08:34:06;;;;;;;23.85;21.55;;;;;;;22.90;94.55;100493.31;5028748;28;20199;-47
2022/08/16 08:36:35;;;;;;;21.83;19.73;;;;;;;22.87;93.54;100488.16;5029225;28;20334;-50
2022/08/16 08:39:21;;;;;;;25.15;19.45;;;;;;;22.71;91.66;100486.00;5029115;28;20195;-48
2022/08/16 08:41:47;;;;;;;23.77;19.38;;;;;;;22.83;90.93;100493.03;5029082;28;20171;-47
2022/08/16 08:44:14;;;;;;;20.27;18.10;;;;;;;23.28;89.74;100502.44;5027962;28;20211;-46
2022/08/16 08:46:39;;;;;;;18.38;16.60;;;;;;;23.69;88.39;100505.75;5030153;28;20247;-47
2022/08/16 08:49:08;;;;;;;18.02;15.02;;;;;;;24.11;85.69;100505.22;5027916;28;20171;-47
2022/08/16 08:51:38;;;;;;;17.52;15.32;;;;;;;24.30;84.53;100506.13;5062135;28;20206;-49
2022/08/16 08:54:08;;;;;;;14.40;11.93;;;;;;;24.03;84.31;100507.88;5028740;28;20579;-47
2022/08/16 08:56:36;;;;;;;17.45;12.73;;;;;;;23.97;85.08;100514.84;5061868;28;20195;-47
2022/08/16 08:59:08;;;;;;;16.08;11.90;;;;;;;24.28;82.84;100511.75;5028084;28;20167;-48
2022/08/16 09:01:38;;;;;;;12.40;11.10;;;;;;;24.83;80.45;100513.47;5029989;28;20179;-48
2022/08/16 09:04:06;;;;;;;15.27;10.35;;;;;;;24.97;78.70;100517.50;5029711;28;20214;-48
2022/08/16 09:06:34;;;;;;;13.02;9.63;;;;;;;25.09;77.46;100506.13;5059030;28;20266;-47
2022/08/16 09:09:03;;;;;;;11.05;7.20;;;;;;;25.73;75.59;100508.56;5032683;28;20217;-47
2022/08/16 09:11:30;;;;;;;13.85;9.23;;;;;;;25.50;74.73;100513.78;5033830;28;20180;-49
2022/08/16 09:13:56;;;;;;;10.02;8.00;;;;;;;25.16;74.77;100513.72;5031735;28;20644;-47
2022/08/16 09:16:21;;;;;;;10.00;7.35;;;;;;;24.68;75.54;100513.16;5032100;28;20198;-47
2022/08/16 09:18:47;;;;;;;9.57;6.32;;;;;;;24.88;75.69;100522.06;5031502;28;20350;-47
2022/08/16 09:21:14;;;;;;;6.80;6.13;;;;;;;24.97;74.79;100523.00;5015753;28;20266;-48
2022/08/16 09:23:41;;;;;;;7.28;5.70;;;;;;;24.83;74.95;100516.22;5033022;28;20886;-49
2022/08/16 09:26:11;;;;;;;9.18;6.18;;;;;;;25.26;73.68;100515.34;5031064;28;20176;-49
2022/08/16 09:28:37;;;;;;;8.32;6.35;;;;;;;25.23;71.26;100520.28;5013276;28;20211;-48
2022/08/16 09:31:18;;;;;;;8.80;5.85;;;;;;;25.32;72.03;100518.47;5012143;28;20211;-47
2022/08/16 09:33:44;;;;;;;9.55;5.60;;;;;;;25.80;70.97;100512.38;5013664;28;20222;-48
2022/08/16 09:36:11;;;;;;;14.23;6.38;;;;;;;26.04;68.70;100510.75;5012190;28;20286;-48
2022/08/16 09:38:38;;;;;;;9.43;6.20;;;;;;;26.43;68.46;100532.13;5013291;28;20172;-48
2022/08/16 09:41:06;;;;;;;7.28;5.75;;;;;;;26.51;68.83;100529.41;5011742;28;20199;-47
2022/08/16 09:43:33;;;;;;;8.32;5.95;;;;;;;26.16;67.93;100528.66;5013001;28;20333;-48
2022/08/16 09:46:00;;;;;;;8.25;5.90;;;;;;;25.75;70.36;100524.88;5013623;28;20764;-50
2022/08/16 09:48:27;;;;;;;10.75;6.72;;;;;;;26.01;68.63;100522.94;5013262;28;20168;-48
2022/08/16 09:50:53;;;;;;;6.43;5.43;;;;;;;26.44;68.11;100520.13;5012594;28;20282;-48
2022/08/16 09:53:21;;;;;;;9.98;6.53;;;;;;;26.43;67.38;100529.38;5013105;28;20207;-48
2022/08/16 09:55:51;;;;;;;9.13;5.80;;;;;;;26.49;67.68;100525.97;5013060;28;20548;-47
2022/08/16 09:58:22;;;;;;;8.30;6.00;;;;;;;26.67;66.54;100526.69;5013166;28;20180;-47
2022/08/16 10:00:49;;;;;;;9.07;6.28;;;;;;;27.07;65.22;100519.47;5012481;28;20668;-47
2022/08/16 10:03:16;;;;;;;8.30;5.80;;;;;;;27.06;65.43;100519.66;5012947;28;20698;-48
2022/08/16 10:05:41;;;;;;;8.80;6.68;;;;;;;27.10;64.60;100521.88;5013016;28;20222;-44
2022/08/16 10:08:07;;;;;;;13.20;6.72;;;;;;;26.86;65.39;100521.91;5012956;28;20192;-42
2022/08/16 10:10:34;;;;;;;12.20;7.28;;;;;;;26.46;65.01;100523.56;5012447;28;20669;-45
2022/08/16 10:13:12;;;;;;;11.70;7.90;;;;;;;26.47;64.20;100523.38;5011296;28;20262;-42
2022/08/16 10:15:42;;;;;;;10.90;7.82;;;;;;;26.79;64.64;100531.88;5012510;28;20172;-43
2022/08/16 10:18:11;;;;;;;9.43;7.40;;;;;;;26.91;63.71;100527.72;5012638;28;20191;-43
2022/08/16 10:20:43;;;;;;;9.93;8.63;;;;;;;27.06;64.03;100531.50;5012644;28;20184;-41
2022/08/16 10:23:13;;;;;;;8.63;7.28;;;;;;;27.29;63.30;100528.06;5012489;28;20204;-41
2022/08/16 10:25:41;;;;;;;9.98;6.78;;;;;;;27.66;63.17;100515.56;5012769;28;20208;-42
2022/08/16 10:28:07;;;;;;;10.43;8.57;;;;;;;27.57;62.37;100524.88;5011494;28;20271;-42
2022/08/16 10:30:34;;;;;;;8.77;7.70;;;;;;;27.50;62.84;100541.25;5012108;28;20231;-41
2022/08/16 10:32:59;;;;;;;10.45;9.02;;;;;;;27.27;63.13;100532.91;5012714;28;20254;-45
2022/08/16 10:35:25;;;;;;;11.07;8.32;;;;;;;27.82;61.95;100539.44;5012197;28;20172;-41
2022/08/16 10:37:51;;;;;;;9.70;8.25;;;;;;;27.40;62.37;100535.97;5012859;28;20689;-43
2022/08/16 10:40:17;;;;;;;11.57;8.43;;;;;;;27.03;62.87;100550.25;5012307;28;20621;-43
2022/08/16 10:42:42;;;;;;;9.70;8.70;;;;;;;26.51;64.53;100556.88;5012295;28;20718;-41
2022/08/16 10:45:08;;;;;;;9.00;7.65;;;;;;;26.33;66.00;100546.03;5012220;28;20267;-41
2022/08/16 10:47:34;;;;;;;10.73;8.38;;;;;;;26.31;66.26;100561.81;5012357;28;20187;-43
2022/08/16 10:50:01;;;;;;;12.40;8.55;;;;;;;26.31;66.39;100551.69;5012278;28;20279;-42
2022/08/16 10:52:26;;;;;;;13.73;8.00;;;;;;;26.24;66.83;100558.03;5012296;28;20231;-42
2022/08/16 10:54:52;;;;;;;10.10;7.75;;;;;;;26.05;67.92;100561.91;5012334;28;20175;-42
2022/08/16 10:57:17;;;;;;;10.23;9.25;;;;;;;26.34;66.61;100560.63;5011987;28;20259;-41
2022/08/16 10:59:43;;;;;;;12.55;8.65;;;;;;;26.42;65.32;100557.91;5011485;28;20233;-42
2022/08/16 11:02:09;;;;;;;8.00;6.68;;;;;;;27.30;64.30;100566.41;5012105;28;20176;-42
2022/08/16 11:04:35;;;;;;;7.10;6.40;;;;;;;27.74;62.48;100554.94;5011735;28;20697;-43
2022/08/16 11:07:00;;;;;;;7.65;6.93;;;;;;;27.69;62.36;100562.03;5012214;28;20188;-42
2022/08/16 11:09:26;;;;;;;11.40;7.40;;;;;;;27.59;62.31;100569.59;5011470;28;20264;-42
2022/08/16 11:11:51;;;;;;;8.75;7.78;;;;;;;27.73;61.79;100568.88;5011849;28;20177;-42
2022/08/16 11:14:18;;;;;;;9.32;6.65;;;;;;;27.79;61.31;100567.31;5011918;28;20284;-43